createdAt,value
2018-09-14T00:00:47.323Z,64.90
2018-09-14T00:03:17.566Z,65.66
2018-09-14T00:05:48.911Z,65.20
2018-09-14T00:08:20.380Z,65.26
2018-09-14T00:10:52.123Z,64.79
2018-09-14T00:13:22.944Z,65.16
2018-09-14T00:15:53.656Z,65.28
2018-09-14T00:18:23.966Z,64.95
2018-09-14T00:20:54.440Z,65.08
2018-09-14T00:23:25.923Z,65.11
2018-09-14T00:25:56.139Z,65.41
2018-09-14T00:28:26.645Z,65.66
2018-09-14T00:30:57.484Z,65.30
2018-09-14T00:33:27.780Z,65.58
2018-09-14T00:35:58.755Z,65.81
2018-09-14T00:38:29.273Z,65.51
2018-09-14T00:41:00.074Z,65.52
2018-09-14T00:43:30.624Z,65.55
2018-09-14T00:46:01.164Z,65.48
2018-09-14T00:48:32.484Z,65.38
2018-09-14T00:51:02.815Z,64.87
2018-09-14T00:53:33.669Z,64.89
2018-09-14T00:56:04.200Z,65.13
2018-09-14T00:58:34.779Z,65.05
2018-09-14T01:01:05.391Z,65.19
2018-09-14T01:03:36.009Z,65.21
2018-09-14T01:06:06.761Z,65.29
2018-09-14T01:08:37.256Z,65.50
2018-09-14T01:11:07.478Z,65.97
2018-09-14T01:13:38.037Z,66.25
2018-09-14T01:16:08.527Z,66.37
2018-09-14T01:18:38.733Z,66.53
2018-09-14T01:21:10.441Z,67.08
2018-09-14T01:23:41.097Z,67.44
2018-09-14T01:26:11.457Z,67.19
2018-09-14T01:28:41.791Z,67.77
2018-09-14T01:31:12.719Z,67.52
2018-09-14T01:33:42.928Z,68.08
2018-09-14T01:36:13.508Z,68.29
2018-09-14T01:38:44.042Z,68.07
2018-09-14T01:41:14.572Z,68.59
2018-09-14T01:43:45.099Z,69.18
2018-09-14T01:46:17.931Z,68.61
2018-09-14T01:48:51.766Z,68.84
2018-09-14T01:51:22.321Z,69.39
2018-09-14T01:53:53.012Z,69.13
2018-09-14T01:56:23.530Z,69.25
2018-09-14T01:58:54.064Z,69.26
2018-09-14T02:01:24.313Z,69.88
2018-09-14T02:03:54.848Z,70.08
2018-09-14T02:06:26.940Z,69.73
2018-09-14T02:08:57.712Z,69.99
2018-09-14T02:11:27.931Z,69.90
2018-09-14T02:13:58.600Z,70.21
2018-09-14T02:16:29.400Z,70.42
2018-09-14T02:19:00.443Z,70.51
2018-09-14T02:21:31.010Z,70.55
2018-09-14T02:24:01.582Z,70.76
2018-09-14T02:26:31.903Z,70.66
2018-09-14T02:29:03.264Z,71.57
2018-09-14T02:31:33.734Z,71.36
2018-09-14T02:34:04.284Z,71.17
2018-09-14T02:36:35.072Z,71.38
2018-09-14T02:39:07.745Z,71.27
2018-09-14T02:41:38.245Z,71.26
2018-09-14T02:44:08.811Z,70.34
2018-09-14T02:46:39.335Z,71.31
2018-09-14T02:49:14.464Z,71.25
2018-09-14T02:51:45.001Z,72.23
2018-09-14T02:54:15.550Z,72.00
2018-09-14T02:56:46.355Z,71.32
2018-09-14T02:59:16.880Z,71.22
2018-09-14T03:01:47.137Z,72.26
2018-09-14T03:04:17.406Z,72.14
2018-09-14T03:06:48.185Z,73.19
2018-09-14T03:09:18.436Z,73.23
2018-09-14T03:11:49.075Z,73.86
2018-09-14T03:14:19.780Z,74.06
2018-09-14T03:16:50.031Z,74.45
2018-09-14T03:19:20.557Z,74.05
2018-09-14T03:21:51.009Z,74.24
2018-09-14T03:24:21.688Z,74.84
2018-09-14T03:26:52.215Z,74.60
2018-09-14T03:29:22.986Z,74.72
2018-09-14T03:31:54.324Z,74.84
2018-09-14T03:34:24.552Z,74.54
2018-09-14T03:36:55.268Z,74.94
2018-09-14T03:39:26.723Z,74.65
2018-09-14T03:41:57.360Z,73.78
2018-09-14T03:44:28.104Z,73.78
2018-09-14T03:46:58.612Z,73.51
2018-09-14T03:49:29.234Z,73.95
2018-09-14T03:52:00.364Z,73.30
2018-09-14T03:54:31.049Z,74.00
2018-09-14T03:57:04.807Z,73.87
2018-09-14T03:59:37.944Z,73.70
2018-09-14T04:02:08.566Z,72.90
2018-09-14T04:04:39.321Z,73.38
2018-09-14T04:07:09.942Z,73.40
2018-09-14T04:09:40.977Z,73.75
2018-09-14T04:12:11.501Z,73.82
2018-09-14T04:14:42.457Z,73.65
2018-09-14T04:17:13.091Z,73.04
2018-09-14T04:19:43.960Z,73.29
2018-09-14T04:22:14.511Z,73.38
2018-09-14T04:24:45.964Z,73.77
2018-09-14T04:27:16.464Z,73.43
2018-09-14T04:29:47.005Z,73.85
2018-09-14T04:32:17.521Z,73.60
2018-09-14T04:34:48.271Z,73.77
2018-09-14T04:37:18.912Z,73.94
2018-09-14T04:39:49.840Z,73.88
2018-09-14T04:42:22.035Z,73.69
2018-09-14T04:44:52.367Z,73.90
2018-09-14T04:47:22.913Z,73.71
2018-09-14T04:49:53.871Z,74.13
2018-09-14T04:52:24.399Z,73.77
2018-09-14T04:54:54.617Z,73.80
2018-09-14T04:57:25.348Z,73.69
2018-09-14T04:59:56.400Z,73.77
2018-09-14T05:02:26.983Z,73.29
2018-09-14T05:04:57.512Z,73.38
2018-09-14T05:07:29.673Z,74.08
2018-09-14T05:10:00.431Z,73.29
2018-09-14T05:12:31.361Z,73.18
2018-09-14T05:15:01.819Z,72.48
2018-09-14T05:17:33.581Z,72.04
2018-09-14T05:20:07.024Z,71.72
2018-09-14T05:22:37.458Z,71.94
2018-09-14T05:25:08.898Z,71.50
2018-09-14T05:27:39.314Z,70.49
2018-09-14T05:30:09.575Z,70.84
2018-09-14T05:32:40.041Z,70.25
2018-09-14T05:35:10.343Z,69.55
2018-09-14T05:37:40.863Z,70.25
2018-09-14T05:40:11.111Z,69.82
2018-09-14T05:42:41.604Z,70.22
2018-09-14T05:45:13.348Z,69.78
2018-09-14T05:47:43.890Z,69.37
2018-09-14T05:50:14.435Z,69.83
2018-09-14T05:52:45.133Z,69.97
2018-09-14T05:55:15.703Z,69.34
2018-09-14T05:57:46.276Z,68.02
2018-09-14T06:00:17.160Z,68.59
2018-09-14T06:02:47.789Z,68.63
2018-09-14T06:05:18.201Z,68.47
2018-09-14T06:07:48.544Z,69.17
2018-09-14T06:10:19.891Z,69.31
2018-09-14T06:12:51.049Z,69.81
2018-09-14T06:15:22.165Z,69.31
2018-09-14T06:17:53.018Z,69.70
2018-09-14T06:20:27.055Z,70.19
2018-09-14T06:22:57.598Z,69.92
2018-09-14T06:25:28.420Z,69.54
2018-09-14T06:27:58.804Z,69.76
2018-09-14T06:30:29.363Z,70.33
2018-09-14T06:33:00.051Z,69.04
2018-09-14T06:35:30.419Z,69.00
2018-09-14T06:38:00.941Z,68.61
2018-09-14T06:40:33.632Z,68.16
2018-09-14T06:43:03.866Z,69.41
2018-09-14T06:45:34.720Z,69.03
2018-09-14T06:48:05.791Z,69.42
2018-09-14T06:50:36.396Z,68.91
2018-09-14T06:53:06.952Z,69.31
2018-09-14T06:55:37.564Z,69.21
2018-09-14T06:58:07.804Z,68.42
2018-09-14T07:00:38.329Z,69.09
2018-09-14T07:03:10.231Z,69.47
2018-09-14T07:05:40.533Z,69.93
2018-09-14T07:08:11.335Z,69.48
2018-09-14T07:10:41.885Z,69.94
2018-09-14T07:13:12.478Z,69.83
2018-09-14T07:15:44.453Z,70.13
2018-09-14T07:18:15.006Z,70.50
2018-09-14T07:20:45.642Z,71.22
2018-09-14T07:23:16.381Z,71.31
2018-09-14T07:25:46.878Z,71.48
2018-09-14T07:28:17.948Z,71.10
2018-09-14T07:30:49.075Z,70.62
2018-09-14T07:33:19.788Z,70.59
2018-09-14T07:35:50.476Z,69.99
2018-09-14T07:38:20.735Z,69.71
2018-09-14T07:40:51.543Z,70.29
2018-09-14T07:43:21.780Z,70.25
2018-09-14T07:45:52.474Z,69.81
2018-09-14T07:48:23.049Z,70.28
2018-09-14T07:50:53.740Z,69.83
2018-09-14T07:53:24.329Z,69.46
2018-09-14T07:55:54.996Z,69.42
2018-09-14T07:58:25.574Z,70.16
2018-09-14T08:00:56.112Z,70.00
2018-09-14T08:03:26.632Z,70.28
2018-09-14T08:05:57.228Z,69.71
2018-09-14T08:08:30.418Z,69.80
2018-09-14T08:11:00.646Z,69.51
2018-09-14T08:13:31.151Z,69.40
2018-09-14T08:16:01.563Z,70.00
2018-09-14T08:18:32.318Z,71.10
2018-09-14T08:21:02.920Z,70.28
2018-09-14T08:23:33.430Z,70.59
2018-09-14T08:26:04.328Z,69.64
2018-09-14T08:28:48.090Z,69.88
2018-09-14T08:31:18.737Z,69.61
2018-09-14T08:33:49.556Z,69.76
2018-09-14T08:36:20.796Z,70.12
2018-09-14T08:38:51.526Z,69.30
2018-09-14T08:41:21.744Z,68.80
2018-09-14T08:43:53.109Z,68.40
2018-09-14T08:46:23.633Z,67.56
2018-09-14T08:48:54.292Z,68.47
2018-09-14T08:51:24.896Z,69.80
2018-09-14T08:53:59.220Z,69.70
2018-09-14T08:56:29.740Z,69.79
2018-09-14T08:59:00.148Z,69.78
2018-09-14T09:01:31.307Z,70.01
2018-09-14T09:04:01.521Z,70.11
2018-09-14T09:06:31.784Z,70.32
2018-09-14T09:09:02.424Z,69.96
2018-09-14T09:11:32.927Z,69.47
2018-09-14T09:14:03.822Z,69.53
2018-09-14T09:16:35.013Z,69.40
2018-09-14T09:19:05.921Z,69.72
2018-09-14T09:21:37.971Z,69.50
2018-09-14T09:24:08.340Z,69.41
2018-09-14T09:26:38.639Z,69.99
2018-09-14T09:29:10.814Z,70.02
2018-09-14T09:31:41.488Z,69.46
2018-09-14T09:34:12.132Z,69.97
2018-09-14T09:36:42.753Z,68.73
2018-09-14T09:39:13.919Z,69.13
2018-09-14T09:41:44.457Z,68.96
2018-09-14T09:44:15.469Z,69.50
2018-09-14T09:46:46.063Z,69.11
2018-09-14T09:49:16.845Z,68.06
2018-09-14T09:51:47.489Z,68.05
2018-09-14T09:54:17.756Z,68.69
2018-09-14T09:56:48.489Z,68.71
2018-09-14T09:59:19.149Z,68.78
2018-09-14T10:01:54.865Z,68.63
2018-09-14T10:04:30.297Z,68.08
2018-09-14T10:07:01.040Z,68.66
2018-09-14T10:09:31.551Z,68.84
2018-09-14T10:12:02.381Z,68.57
2018-09-14T10:14:32.628Z,67.58
2018-09-14T10:17:03.162Z,67.38
2018-09-14T10:19:33.568Z,68.38
2018-09-14T10:22:03.853Z,68.97
2018-09-14T10:24:34.101Z,68.92
2018-09-14T10:27:04.624Z,68.77
2018-09-14T10:29:35.407Z,68.23
2018-09-14T10:32:05.943Z,67.60
2018-09-14T10:34:38.135Z,67.58
2018-09-14T10:37:09.885Z,65.51
2018-09-14T10:39:40.263Z,64.77
2018-09-14T10:42:10.510Z,65.63
2018-09-14T10:44:42.167Z,66.40
2018-09-14T10:47:12.576Z,65.66
2018-09-14T10:49:42.920Z,66.04
2018-09-14T10:52:13.473Z,65.48
2018-09-14T10:54:44.189Z,65.86
2018-09-14T10:57:14.911Z,66.04
2018-09-14T10:59:45.142Z,66.66
2018-09-14T11:02:17.517Z,67.49
2018-09-14T11:04:47.838Z,67.19
2018-09-14T11:07:18.913Z,66.91
2018-09-14T11:09:49.522Z,65.61
2018-09-14T11:12:20.350Z,65.96
2018-09-14T11:14:52.081Z,65.17
2018-09-14T11:17:22.932Z,65.18
2018-09-14T11:19:53.948Z,65.85
2018-09-14T11:22:24.314Z,65.04
2018-09-14T11:24:55.196Z,65.33
2018-09-14T11:27:26.027Z,66.35
2018-09-14T11:29:56.741Z,66.43
2018-09-14T11:32:28.072Z,66.43
2018-09-14T11:34:59.364Z,67.37
2018-09-14T11:37:29.974Z,67.18
2018-09-14T11:40:01.767Z,67.35
2018-09-14T11:42:32.478Z,66.50
2018-09-14T11:45:03.187Z,65.93
2018-09-14T11:47:33.887Z,65.18
2018-09-14T11:50:05.063Z,65.68
2018-09-14T11:52:35.885Z,65.40
2018-09-14T11:55:06.484Z,65.49
2018-09-14T11:57:36.925Z,66.23
2018-09-14T12:00:07.794Z,65.12
2018-09-14T12:02:39.503Z,65.12
2018-09-14T12:05:10.094Z,64.55
2018-09-14T12:07:40.619Z,64.62
2018-09-14T12:10:11.177Z,64.67
2018-09-14T12:12:41.979Z,65.64
2018-09-14T12:15:12.221Z,66.57
2018-09-14T12:17:42.710Z,67.06
2018-09-14T12:20:13.184Z,66.41
2018-09-14T12:22:43.747Z,66.56
2018-09-14T12:25:13.987Z,66.09
2018-09-14T12:27:44.502Z,66.46
2018-09-14T12:30:15.082Z,66.60
2018-09-14T12:32:45.544Z,66.99
2018-09-14T12:35:16.688Z,66.34
2018-09-14T12:37:47.548Z,66.27
2018-09-14T12:40:18.742Z,66.98
2018-09-14T12:42:49.020Z,66.51
2018-09-14T12:45:19.546Z,67.07
2018-09-14T12:47:50.416Z,67.07
2018-09-14T12:50:21.160Z,66.83
2018-09-14T12:52:51.948Z,67.38
2018-09-14T12:55:22.627Z,67.42
2018-09-14T12:57:53.133Z,67.52
2018-09-14T13:00:23.668Z,67.21
2018-09-14T13:02:54.716Z,67.36
2018-09-14T13:05:25.204Z,68.45
2018-09-14T13:07:55.745Z,69.27
2018-09-14T13:10:26.355Z,69.22
2018-09-14T13:12:57.723Z,69.54
2018-09-14T13:15:28.426Z,70.71
2018-09-14T13:17:58.833Z,72.49
2018-09-14T13:20:29.573Z,73.50
2018-09-14T13:22:59.851Z,74.93
2018-09-14T13:25:30.391Z,74.79
2018-09-14T13:28:00.979Z,75.22
2018-09-14T13:30:31.922Z,75.42
2018-09-14T13:33:02.681Z,76.16
2018-09-14T13:35:33.666Z,76.17
2018-09-14T13:38:04.260Z,77.05
2018-09-14T13:40:34.759Z,77.93
2018-09-14T13:43:05.031Z,79.42
2018-09-14T13:45:35.860Z,80.43
2018-09-14T13:48:06.422Z,81.07
2018-09-14T13:50:36.973Z,81.86
2018-09-14T13:53:07.474Z,81.65
2018-09-14T13:55:38.035Z,83.01
2018-09-14T13:58:08.948Z,83.10
2018-09-14T14:00:39.540Z,83.20
2018-09-14T14:03:09.800Z,83.58
2018-09-14T14:05:40.068Z,82.61
2018-09-14T14:08:10.560Z,83.80
2018-09-14T14:10:41.084Z,83.13
2018-09-14T14:13:11.400Z,83.67
2018-09-14T14:15:41.893Z,82.92
2018-09-14T14:18:12.283Z,82.82
2018-09-14T14:20:43.279Z,81.66
2018-09-14T14:23:13.789Z,80.53
2018-09-14T14:25:44.881Z,80.63
2018-09-14T14:28:15.332Z,79.32
2018-09-14T14:30:46.015Z,77.71
2018-09-14T14:33:16.520Z,78.85
2018-09-14T14:35:47.409Z,79.66
2018-09-14T14:38:17.929Z,79.06
2018-09-14T14:40:48.439Z,77.35
2018-09-14T14:43:18.996Z,79.48
2018-09-14T14:45:50.014Z,79.61
2018-09-14T14:48:20.655Z,80.95
2018-09-14T14:50:51.448Z,82.14
2018-09-14T14:53:21.952Z,83.03
2018-09-14T14:55:52.541Z,82.60
2018-09-14T14:58:23.348Z,82.79
2018-09-14T15:00:53.855Z,83.55
2018-09-14T15:03:25.029Z,84.09
2018-09-14T15:05:55.532Z,85.01
2018-09-14T15:08:26.255Z,85.11
2018-09-14T15:10:56.928Z,84.64
2018-09-14T15:13:27.452Z,84.24
2018-09-14T15:15:58.295Z,84.22
2018-09-14T15:18:28.940Z,84.98
2018-09-14T15:20:59.509Z,84.72
2018-09-14T15:23:29.722Z,85.37
2018-09-14T15:25:59.979Z,85.40
2018-09-14T15:28:30.204Z,85.65
2018-09-14T15:31:00.911Z,85.89
2018-09-14T15:33:31.476Z,85.45
2018-09-14T15:36:01.999Z,84.76
2018-09-14T15:38:32.407Z,85.51
2018-09-14T15:41:02.956Z,85.38
2018-09-14T15:43:33.355Z,86.27
2018-09-14T15:46:04.052Z,85.69
2018-09-14T15:48:34.586Z,86.00
2018-09-14T15:51:05.355Z,85.19
2018-09-14T15:53:35.985Z,85.40
2018-09-14T15:56:07.086Z,85.69
2018-09-14T15:58:37.968Z,85.73
2018-09-14T16:01:08.581Z,86.17
2018-09-14T16:03:39.301Z,86.33
2018-09-14T16:06:09.592Z,86.03
2018-09-14T16:08:39.899Z,85.72
2018-09-14T16:11:10.434Z,85.39
2018-09-14T16:13:41.339Z,85.20
2018-09-14T16:16:11.984Z,84.87
2018-09-14T16:18:42.260Z,86.35
2018-09-14T16:21:12.820Z,86.35
2018-09-14T16:23:43.359Z,85.95
2018-09-14T16:26:14.061Z,86.30
2018-09-14T16:28:44.612Z,85.84
2018-09-14T16:31:15.404Z,86.66
2018-09-14T16:33:46.417Z,86.54
2018-09-14T16:36:16.897Z,86.77
2018-09-14T16:38:47.649Z,87.17
2018-09-14T16:41:18.150Z,87.41
2018-09-14T16:43:49.037Z,87.62
2018-09-14T16:46:19.628Z,88.29
2018-09-14T16:48:50.388Z,87.13
2018-09-14T16:51:21.442Z,86.87
2018-09-14T16:53:52.124Z,87.50
2018-09-14T16:56:22.820Z,86.70
2018-09-14T16:58:53.333Z,87.04
2018-09-14T17:01:23.641Z,86.04
2018-09-14T17:03:57.274Z,87.20
2018-09-14T17:06:27.541Z,86.43
2018-09-14T17:08:58.391Z,85.56
2018-09-14T17:11:29.200Z,86.29
2018-09-14T17:14:00.067Z,85.33
2018-09-14T17:16:30.613Z,84.76
2018-09-14T17:19:03.912Z,84.43
2018-09-14T17:21:34.730Z,83.78
2018-09-14T17:24:05.569Z,83.08
2018-09-14T17:26:36.139Z,81.00
2018-09-14T17:29:06.691Z,79.74
2018-09-14T17:31:37.259Z,79.93
2018-09-14T17:34:22.669Z,79.73
2018-09-14T17:36:53.213Z,80.01
2018-09-14T17:39:23.724Z,80.02
2018-09-14T17:41:54.272Z,78.51
2018-09-14T17:44:24.849Z,77.48
2018-09-14T17:46:55.658Z,76.67
2018-09-14T17:49:26.650Z,77.03
2018-09-14T17:51:57.063Z,78.49
2018-09-14T17:54:27.579Z,78.13
2018-09-14T17:56:57.918Z,78.71
2018-09-14T17:59:28.949Z,77.53
2018-09-14T18:01:59.716Z,77.30
2018-09-14T18:04:30.264Z,78.09
2018-09-14T18:07:00.658Z,78.33
2018-09-14T18:09:31.076Z,79.93
2018-09-14T18:12:01.830Z,78.75
2018-09-14T18:14:32.420Z,78.67
2018-09-14T18:17:02.729Z,79.50
2018-09-14T18:19:34.366Z,79.65
2018-09-14T18:22:04.885Z,80.30
2018-09-14T18:24:35.724Z,78.85
2018-09-14T18:27:06.557Z,80.20
2018-09-14T18:29:37.084Z,80.73
2018-09-14T18:32:07.965Z,81.11
2018-09-14T18:34:39.100Z,79.62
2018-09-14T18:37:10.192Z,80.49
2018-09-14T18:39:40.871Z,80.59
2018-09-14T18:42:11.560Z,78.75
2018-09-14T18:44:42.505Z,80.08
2018-09-14T18:47:12.794Z,79.44
2018-09-14T18:49:43.561Z,80.13
2018-09-14T18:52:14.052Z,79.71
2018-09-14T18:54:44.513Z,80.24
2018-09-14T18:57:16.418Z,80.28
2018-09-14T18:59:47.625Z,80.14
2018-09-14T19:02:17.986Z,79.41
2018-09-14T19:04:48.698Z,79.33
2018-09-14T19:07:19.792Z,79.53
2018-09-14T19:09:50.067Z,80.72
2018-09-14T19:12:21.176Z,80.90
2018-09-14T19:14:51.808Z,80.85
2018-09-14T19:17:22.385Z,80.56
2018-09-14T19:19:53.920Z,80.73
2018-09-14T19:22:24.494Z,81.21
2018-09-14T19:24:54.996Z,81.34
2018-09-14T19:27:26.009Z,81.52
2018-09-14T19:29:56.566Z,80.37
2018-09-14T19:32:26.940Z,81.23
2018-09-14T19:34:57.304Z,78.18
2018-09-14T19:37:27.848Z,78.88
2018-09-14T19:39:58.705Z,78.66
2018-09-14T19:42:29.004Z,78.25
2018-09-14T19:44:59.736Z,79.50
2018-09-14T19:47:30.089Z,78.29
2018-09-14T19:50:00.487Z,79.02
2018-09-14T19:52:32.414Z,77.65
2018-09-14T19:55:03.118Z,79.11
2018-09-14T19:57:33.415Z,79.97
2018-09-14T20:00:04.349Z,79.74
2018-09-14T20:02:34.892Z,80.43
2018-09-14T20:05:06.847Z,79.22
2018-09-14T20:07:37.516Z,77.63
2018-09-14T20:10:08.055Z,76.35
2018-09-14T20:12:38.404Z,77.50
2018-09-14T20:15:10.053Z,75.46
2018-09-14T20:17:40.984Z,76.14
2018-09-14T20:20:12.304Z,79.04
2018-09-14T20:22:44.434Z,80.90
2018-09-14T20:25:14.712Z,80.88
2018-09-14T20:27:45.567Z,81.26
2018-09-14T20:30:16.107Z,81.70
2018-09-14T20:32:47.628Z,81.61
2018-09-14T20:35:17.976Z,82.53
2018-09-14T20:37:48.767Z,82.57
2018-09-14T20:40:19.502Z,83.30
2018-09-14T20:42:50.280Z,82.62
2018-09-14T20:45:20.852Z,82.52
2018-09-14T20:47:51.384Z,82.31
2018-09-14T20:50:22.000Z,82.90
2018-09-14T20:52:52.276Z,82.93
2018-09-14T20:55:22.829Z,83.71
2018-09-14T20:57:54.375Z,84.32
2018-09-14T21:00:25.726Z,84.63
2018-09-14T21:02:56.602Z,84.45
2018-09-14T21:05:27.741Z,85.08
2018-09-14T21:07:58.274Z,84.84
2018-09-14T21:10:28.743Z,84.80
2018-09-14T21:12:59.532Z,84.73
2018-09-14T21:15:30.197Z,84.37
2018-09-14T21:18:00.480Z,85.49
2018-09-14T21:20:31.106Z,84.70
2018-09-14T21:23:01.471Z,85.42
2018-09-14T21:25:32.203Z,85.22
2018-09-14T21:28:02.752Z,85.10
2018-09-14T21:30:33.528Z,85.65
2018-09-14T21:33:04.272Z,85.36
2018-09-14T21:35:34.970Z,84.67
2018-09-14T21:38:05.531Z,84.20
2018-09-14T21:40:36.236Z,83.80
2018-09-14T21:43:06.996Z,83.10
2018-09-14T21:45:37.565Z,82.88
2018-09-14T21:48:08.012Z,83.61
2018-09-14T21:50:39.459Z,82.75
2018-09-14T21:53:10.337Z,82.18
2018-09-14T21:55:41.040Z,82.57
2018-09-14T21:58:11.759Z,84.30
2018-09-14T22:00:47.563Z,84.95
2018-09-14T22:03:18.182Z,85.11
2018-09-14T22:05:48.623Z,86.11
2018-09-14T22:08:19.903Z,86.08
2018-09-14T22:10:50.422Z,87.13
2018-09-14T22:13:21.544Z,87.79
2018-09-14T22:15:52.129Z,87.71
2018-09-14T22:18:22.717Z,87.37
2018-09-14T22:20:53.521Z,87.54
2018-09-14T22:23:24.251Z,87.30
2018-09-14T22:25:54.806Z,87.32
2018-09-14T22:28:25.459Z,87.23
2018-09-14T22:30:56.432Z,87.39
2018-09-14T22:33:26.757Z,87.84
2018-09-14T22:35:57.532Z,87.60
2018-09-14T22:38:28.076Z,87.45
2018-09-14T22:40:58.575Z,87.38
2018-09-14T22:43:28.863Z,87.72
2018-09-14T22:45:59.626Z,88.02
2018-09-14T22:48:30.264Z,88.20
2018-09-14T22:51:00.500Z,88.14
2018-09-14T22:53:34.212Z,88.24
2018-09-14T22:56:04.876Z,88.25
2018-09-14T22:58:35.354Z,88.27
2018-09-14T23:01:10.854Z,88.68
2018-09-14T23:03:42.588Z,88.37
2018-09-14T23:06:13.144Z,88.26
2018-09-14T23:08:44.372Z,88.71
2018-09-14T23:11:15.183Z,88.73
2018-09-14T23:13:46.163Z,89.11
2018-09-14T23:16:16.800Z,89.45
2018-09-14T23:18:47.483Z,88.84
2018-09-14T23:21:18.020Z,89.23
2018-09-14T23:23:48.356Z,88.98
2018-09-14T23:26:22.033Z,89.07
2018-09-14T23:28:52.378Z,88.52
2018-09-14T23:31:23.074Z,88.23
2018-09-14T23:33:53.924Z,88.38
2018-09-14T23:36:24.740Z,87.61
2018-09-14T23:38:55.040Z,87.31
2018-09-14T23:41:25.784Z,86.90
2018-09-14T23:43:56.355Z,86.46
2018-09-14T23:46:27.179Z,86.79
2018-09-14T23:48:57.684Z,87.25
2018-09-14T23:51:28.180Z,87.72
2018-09-14T23:53:58.713Z,87.70
2018-09-14T23:56:29.244Z,87.55
2018-09-14T23:58:59.837Z,87.82
